createdAt,value
2022-12-29T00:00:15.069Z,98603.56
2022-12-29T00:02:43.283Z,98593.47
2022-12-29T00:05:11.041Z,98585.84
2022-12-29T00:07:38.834Z,98585.53
2022-12-29T00:10:06.477Z,98578.41
2022-12-29T00:12:48.288Z,98570.25
2022-12-29T00:15:33.482Z,98580.91
2022-12-29T00:18:01.897Z,98565.59
2022-12-29T00:20:47.068Z,98579.44
2022-12-29T00:23:31.994Z,98572.78
2022-12-29T00:26:17.582Z,98565.03
2022-12-29T00:29:03.184Z,98567.09
2022-12-29T00:31:48.191Z,98554.72
2022-12-29T00:34:33.553Z,98535.91
2022-12-29T00:37:01.478Z,98555.84
2022-12-29T00:39:46.746Z,98539.03
2022-12-29T00:42:31.917Z,98545.22
2022-12-29T00:45:00.374Z,98529.75
2022-12-29T00:47:28.043Z,98530.94
2022-12-29T00:49:54.703Z,98534.66
2022-12-29T00:52:22.312Z,98526.19
2022-12-29T00:54:50.092Z,98531.16
2022-12-29T00:57:18.319Z,98529.19
2022-12-29T00:59:46.436Z,98531.84
2022-12-29T01:02:14.184Z,98516.34
2022-12-29T01:04:41.939Z,98519.47
2022-12-29T01:07:09.580Z,98508.16
2022-12-29T01:09:55.128Z,98519.97
2022-12-29T01:12:41.754Z,98526.75
2022-12-29T01:15:09.564Z,98522.06
2022-12-29T01:17:37.264Z,98508.22
2022-12-29T01:20:05.496Z,98518.06
2022-12-29T01:22:33.227Z,98520.34
2022-12-29T01:25:01.530Z,98511.84
2022-12-29T01:27:29.095Z,98522.63
2022-12-29T01:29:56.752Z,98518.31
2022-12-29T01:32:24.747Z,98502.50
2022-12-29T01:34:52.332Z,98505.34
2022-12-29T01:37:19.982Z,98500.31
2022-12-29T01:39:47.580Z,98493.47
2022-12-29T01:42:15.519Z,98505.94
2022-12-29T01:44:43.613Z,98501.31
2022-12-29T01:47:11.395Z,98511.47
2022-12-29T01:49:39.020Z,98500.06
2022-12-29T01:52:06.650Z,98497.91
2022-12-29T01:54:34.866Z,98482.94
2022-12-29T01:57:02.803Z,98497.69
2022-12-29T01:59:30.453Z,98491.84
2022-12-29T02:01:58.056Z,98501.00
2022-12-29T02:04:26.092Z,98497.50
2022-12-29T02:06:53.709Z,98506.31
2022-12-29T02:09:21.678Z,98503.66
2022-12-29T02:11:49.512Z,98493.03
2022-12-29T02:14:17.122Z,98486.53
2022-12-29T02:16:44.733Z,98495.72
2022-12-29T02:19:12.331Z,98489.75
2022-12-29T02:21:40.301Z,98479.63
2022-12-29T02:24:08.087Z,98466.66
2022-12-29T02:26:36.067Z,98477.50
2022-12-29T02:29:03.717Z,98478.38
2022-12-29T02:31:31.356Z,98467.91
2022-12-29T02:33:59.338Z,98468.28
2022-12-29T02:36:26.989Z,98466.47
2022-12-29T02:38:54.559Z,98458.97
2022-12-29T02:41:22.172Z,98458.66
2022-12-29T02:43:49.810Z,98455.97
2022-12-29T02:46:17.910Z,98440.09
2022-12-29T02:48:46.017Z,98442.72
2022-12-29T02:51:13.635Z,98437.91
2022-12-29T02:53:58.550Z,98430.06
2022-12-29T02:56:26.506Z,98436.75
2022-12-29T02:58:54.299Z,98440.91
2022-12-29T03:01:22.037Z,98430.59
2022-12-29T03:03:49.850Z,98434.47
2022-12-29T03:06:17.492Z,98444.16
2022-12-29T03:08:46.477Z,98444.31
2022-12-29T03:11:27.869Z,98431.88
2022-12-29T03:14:13.081Z,98429.22
2022-12-29T03:16:40.785Z,98429.38
2022-12-29T03:19:08.756Z,98427.88
2022-12-29T03:21:54.108Z,98439.56
2022-12-29T03:24:21.693Z,98436.41
2022-12-29T03:26:49.319Z,98434.13
2022-12-29T03:29:17.727Z,98443.47
2022-12-29T03:31:46.118Z,98448.44
2022-12-29T03:34:13.673Z,98449.47
2022-12-29T03:36:41.837Z,98452.63
2022-12-29T03:39:09.402Z,98451.25
2022-12-29T03:41:37.245Z,98459.72
2022-12-29T03:44:14.080Z,98451.22
2022-12-29T03:46:42.060Z,98458.31
2022-12-29T03:49:09.681Z,98439.63
2022-12-29T03:51:37.962Z,98440.94
2022-12-29T03:54:05.539Z,98443.59
2022-12-29T03:56:33.108Z,98453.72
2022-12-29T03:59:01.725Z,98455.19
2022-12-29T04:01:29.350Z,98441.19
2022-12-29T04:03:57.396Z,98455.84
2022-12-29T04:06:25.005Z,98448.16
2022-12-29T04:08:52.585Z,98441.63
2022-12-29T04:11:20.361Z,98435.78
2022-12-29T04:13:48.445Z,98426.47
2022-12-29T04:16:16.151Z,98439.78
2022-12-29T04:18:43.813Z,98433.47
2022-12-29T04:21:11.453Z,98430.63
2022-12-29T04:23:39.245Z,98425.50
2022-12-29T04:26:07.473Z,98430.22
2022-12-29T04:28:35.643Z,98401.94
2022-12-29T04:31:03.490Z,98405.44
2022-12-29T04:33:31.118Z,98389.66
2022-12-29T04:36:00.401Z,98380.19
2022-12-29T04:38:27.974Z,98391.19
2022-12-29T04:40:55.940Z,98379.06
2022-12-29T04:43:23.998Z,98364.41
2022-12-29T04:45:51.557Z,98351.94
2022-12-29T04:48:19.299Z,98350.06
2022-12-29T04:50:46.983Z,98369.88
2022-12-29T04:53:14.999Z,98358.25
2022-12-29T04:55:42.576Z,98370.22
2022-12-29T04:58:10.633Z,98372.91
2022-12-29T05:00:38.394Z,98372.75
2022-12-29T05:03:06.171Z,98361.75
2022-12-29T05:05:34.388Z,98381.25
2022-12-29T05:08:01.959Z,98383.16
2022-12-29T05:10:29.581Z,98379.78
2022-12-29T05:12:57.401Z,98383.66
2022-12-29T05:15:24.990Z,98379.63
2022-12-29T05:17:52.782Z,98396.97
2022-12-29T05:20:20.424Z,98384.94
2022-12-29T05:22:48.040Z,98401.63
2022-12-29T05:25:16.041Z,98393.78
2022-12-29T05:27:43.674Z,98393.09
2022-12-29T05:30:11.339Z,98395.47
2022-12-29T05:32:38.911Z,98394.81
2022-12-29T05:35:06.563Z,98391.16
2022-12-29T05:37:35.260Z,98403.47
2022-12-29T05:40:02.848Z,98384.81
2022-12-29T05:42:31.208Z,98388.13
2022-12-29T05:44:58.790Z,98401.44
2022-12-29T05:47:26.365Z,98404.09
2022-12-29T05:49:54.019Z,98400.59
2022-12-29T05:52:21.644Z,98407.44
2022-12-29T05:54:49.632Z,98420.44
2022-12-29T05:57:17.303Z,98425.78
2022-12-29T05:59:44.899Z,98424.59
2022-12-29T06:02:12.630Z,98437.75
2022-12-29T06:04:40.897Z,98424.41
2022-12-29T06:07:08.860Z,98443.78
2022-12-29T06:09:36.460Z,98431.75
2022-12-29T06:12:04.072Z,98427.09
2022-12-29T06:14:31.647Z,98424.44
2022-12-29T06:16:59.264Z,98427.41
2022-12-29T06:19:27.288Z,98428.78
2022-12-29T06:21:54.876Z,98430.75
2022-12-29T06:24:22.430Z,98439.59
2022-12-29T06:26:51.535Z,98429.44
2022-12-29T06:29:19.157Z,98432.28
2022-12-29T06:31:47.716Z,98442.94
2022-12-29T06:34:15.393Z,98436.59
2022-12-29T06:36:42.980Z,98430.44
2022-12-29T06:39:10.768Z,98449.94
2022-12-29T06:41:38.988Z,98437.75
2022-12-29T06:44:06.963Z,98445.13
2022-12-29T06:46:34.912Z,98434.44
2022-12-29T06:49:02.580Z,98446.13
2022-12-29T06:51:30.490Z,98442.78
2022-12-29T06:53:58.089Z,98460.81
2022-12-29T06:56:25.759Z,98467.97
2022-12-29T06:58:53.336Z,98494.81
2022-12-29T07:01:21.052Z,98485.81
2022-12-29T07:03:49.001Z,98482.16
2022-12-29T07:06:16.611Z,98499.00
2022-12-29T07:08:44.653Z,98504.66
2022-12-29T07:11:12.660Z,98501.16
2022-12-29T07:13:40.253Z,98502.81
2022-12-29T07:16:08.030Z,98497.16
2022-12-29T07:18:35.682Z,98493.81
2022-12-29T07:21:03.488Z,98495.47
2022-12-29T07:23:31.137Z,98486.94
2022-12-29T07:25:58.763Z,98494.38
2022-12-29T07:28:26.577Z,98506.66
2022-12-29T07:30:54.237Z,98505.59
2022-12-29T07:33:22.220Z,98503.53
2022-12-29T07:35:49.829Z,98525.81
2022-12-29T07:38:17.655Z,98532.75
2022-12-29T07:40:45.407Z,98524.09
2022-12-29T07:43:13.023Z,98537.25
2022-12-29T07:45:41.344Z,98533.44
2022-12-29T07:48:09.601Z,98543.78
2022-12-29T07:50:37.304Z,98543.94
2022-12-29T07:53:05.210Z,98541.22
2022-12-29T07:55:33.392Z,98538.19
2022-12-29T07:58:01.360Z,98540.66
2022-12-29T08:00:29.008Z,98549.78
2022-12-29T08:02:56.685Z,98552.63
2022-12-29T08:05:24.476Z,98550.78
2022-12-29T08:07:52.134Z,98561.94
2022-12-29T08:10:20.161Z,98571.59
2022-12-29T08:12:47.785Z,98579.44
2022-12-29T08:15:15.821Z,98583.16
2022-12-29T08:17:43.528Z,98585.03
2022-12-29T08:20:11.354Z,98584.06
2022-12-29T08:22:39.452Z,98586.63
2022-12-29T08:25:07.164Z,98582.34
2022-12-29T08:27:34.819Z,98585.03
2022-12-29T08:30:02.922Z,98579.94
2022-12-29T08:32:30.666Z,98581.59
2022-12-29T08:34:58.788Z,98588.44
2022-12-29T08:37:31.108Z,98587.25
2022-12-29T08:39:59.959Z,98573.50
2022-12-29T08:42:32.169Z,98590.47
2022-12-29T08:45:00.387Z,98584.22
2022-12-29T08:47:28.060Z,98591.56
2022-12-29T08:49:55.741Z,98581.13
2022-12-29T08:52:24.059Z,98578.09
2022-12-29T08:54:51.813Z,98582.28
2022-12-29T08:57:19.841Z,98589.94
2022-12-29T08:59:47.479Z,98595.78
2022-12-29T09:02:20.377Z,98576.97
2022-12-29T09:04:51.475Z,98588.50
2022-12-29T09:07:19.389Z,98582.31
2022-12-29T09:09:47.522Z,98575.81
2022-12-29T09:12:15.256Z,98582.47
2022-12-29T09:14:44.308Z,98576.19
2022-12-29T09:17:29.196Z,98587.19
2022-12-29T09:19:57.495Z,98597.19
2022-12-29T09:22:25.242Z,98605.34
2022-12-29T09:24:52.995Z,98621.19
2022-12-29T09:27:20.752Z,98646.50
2022-12-29T09:29:48.450Z,98652.44
2022-12-29T09:32:18.968Z,98634.03
2022-12-29T09:34:47.546Z,98655.31
2022-12-29T09:37:15.196Z,98660.63
2022-12-29T09:39:44.713Z,98656.94
2022-12-29T09:42:14.300Z,98660.63
2022-12-29T09:44:42.531Z,98674.50
2022-12-29T09:47:10.301Z,98677.75
2022-12-29T09:49:41.047Z,98677.47
2022-12-29T09:52:08.823Z,98673.22
2022-12-29T09:54:36.516Z,98667.31
2022-12-29T09:57:04.592Z,98662.44
2022-12-29T09:59:32.395Z,98651.59
2022-12-29T10:02:00.469Z,98657.56
2022-12-29T10:04:28.739Z,98653.41
2022-12-29T10:07:27.861Z,98654.69
2022-12-29T10:09:44.731Z,98654.69
2022-12-29T10:12:12.402Z,98653.47
2022-12-29T10:14:40.527Z,98663.03
2022-12-29T10:17:08.506Z,98661.09
2022-12-29T10:19:36.349Z,98653.31
2022-12-29T10:22:06.134Z,98668.00
2022-12-29T10:24:33.966Z,98659.56
2022-12-29T10:27:01.563Z,98661.75
2022-12-29T10:29:29.376Z,98656.94
2022-12-29T10:31:57.349Z,98649.84
2022-12-29T10:34:25.238Z,98646.88
2022-12-29T10:36:53.024Z,98654.94
2022-12-29T10:39:20.941Z,98633.50
2022-12-29T10:41:48.784Z,98627.16
2022-12-29T10:44:17.113Z,98633.34
2022-12-29T10:46:45.571Z,98652.00
2022-12-29T10:49:18.009Z,98638.53
2022-12-29T10:51:49.164Z,98635.69
2022-12-29T10:54:16.846Z,98633.38
2022-12-29T10:56:46.675Z,98642.06
2022-12-29T10:59:14.968Z,98641.78
2022-12-29T11:01:43.197Z,98641.44
2022-12-29T11:04:11.109Z,98639.28
2022-12-29T11:06:39.135Z,98651.78
2022-12-29T11:09:07.358Z,98649.97
2022-12-29T11:11:35.246Z,98651.13
2022-12-29T11:14:03.176Z,98637.81
2022-12-29T11:16:31.967Z,98652.69
2022-12-29T11:19:00.064Z,98640.50
2022-12-29T11:21:28.884Z,98638.31
2022-12-29T11:23:56.959Z,98658.13
2022-12-29T11:26:30.206Z,98661.00
2022-12-29T11:29:01.659Z,98671.94
2022-12-29T11:31:29.768Z,98662.44
2022-12-29T11:33:57.635Z,98661.63
2022-12-29T11:36:25.590Z,98688.44
2022-12-29T11:38:53.294Z,98679.59
2022-12-29T11:41:21.164Z,98674.25
2022-12-29T11:43:49.712Z,98682.44
2022-12-29T11:46:17.708Z,98688.59
2022-12-29T11:48:45.577Z,98688.44
2022-12-29T11:51:13.669Z,98700.91
2022-12-29T11:53:41.455Z,98697.28
2022-12-29T11:56:09.917Z,98689.28
2022-12-29T11:58:38.100Z,98704.28
2022-12-29T12:01:06.019Z,98708.09
2022-12-29T12:03:34.160Z,98696.78
2022-12-29T12:06:02.186Z,98712.75
2022-12-29T12:08:31.013Z,98703.78
2022-12-29T12:10:59.277Z,98729.59
2022-12-29T12:13:27.103Z,98725.09
2022-12-29T12:15:57.114Z,98724.09
2022-12-29T12:18:25.168Z,98721.44
2022-12-29T12:20:53.859Z,98707.09
2022-12-29T12:23:22.428Z,98726.44
2022-12-29T12:25:50.322Z,98717.78
2022-12-29T12:28:18.359Z,98730.25
2022-12-29T12:30:46.610Z,98727.59
2022-12-29T12:33:15.010Z,98727.44
2022-12-29T12:35:43.306Z,98736.44
2022-12-29T12:38:11.229Z,98742.78
2022-12-29T12:40:39.546Z,98746.59
2022-12-29T12:43:10.345Z,98744.06
2022-12-29T12:45:38.542Z,98732.72
2022-12-29T12:48:06.864Z,98743.53
2022-12-29T12:50:34.801Z,98740.03
2022-12-29T12:53:02.565Z,98730.34
2022-12-29T12:55:30.283Z,98747.34
2022-12-29T12:57:58.654Z,98743.84
2022-12-29T13:00:26.737Z,98744.84
2022-12-29T13:02:54.855Z,98770.81
2022-12-29T13:05:26.910Z,98749.66
2022-12-29T13:07:55.078Z,98750.78
2022-12-29T13:10:23.397Z,98763.97
2022-12-29T13:12:53.108Z,98755.31
2022-12-29T13:15:21.594Z,98752.63
2022-12-29T13:17:49.637Z,98764.25
2022-12-29T13:20:17.388Z,98764.25
2022-12-29T13:22:45.549Z,98771.59
2022-12-29T13:25:13.537Z,98770.59
2022-12-29T13:27:41.418Z,98764.59
2022-12-29T13:30:09.303Z,98796.72
2022-12-29T13:32:37.482Z,98770.38
2022-12-29T13:35:06.057Z,98784.84
2022-12-29T13:37:34.340Z,98774.34
2022-12-29T13:40:02.276Z,98775.34
2022-12-29T13:42:30.232Z,98766.53
2022-12-29T13:44:58.171Z,98773.53
2022-12-29T13:47:26.586Z,98779.69
2022-12-29T13:49:54.693Z,98797.50
2022-12-29T13:52:22.653Z,98789.38
2022-12-29T13:54:50.552Z,98788.53
2022-12-29T13:57:24.144Z,98796.50
2022-12-29T13:59:56.079Z,98797.50
2022-12-29T14:02:23.991Z,98795.66
2022-12-29T14:04:51.889Z,98793.84
2022-12-29T14:07:19.723Z,98798.31
2022-12-29T14:09:47.581Z,98802.53
2022-12-29T14:12:16.172Z,98813.72
2022-12-29T14:14:44.100Z,98812.56
2022-12-29T14:17:14.760Z,98816.09
2022-12-29T14:19:43.527Z,98810.03
2022-12-29T14:22:11.436Z,98811.03
2022-12-29T14:24:39.527Z,98823.69
2022-12-29T14:27:07.351Z,98814.84
2022-12-29T14:29:35.341Z,98812.19
2022-12-29T14:32:03.226Z,98816.84
2022-12-29T14:34:31.348Z,98820.50
2022-12-29T14:36:59.452Z,98833.16
2022-12-29T14:39:27.695Z,98824.31
2022-12-29T14:41:55.525Z,98830.50
2022-12-29T14:44:23.476Z,98828.63
2022-12-29T14:46:51.405Z,98837.50
2022-12-29T14:49:19.669Z,98840.16
2022-12-29T14:51:47.567Z,98852.81
2022-12-29T14:54:15.323Z,98842.16
2022-12-29T14:56:43.039Z,98859.81
2022-12-29T14:59:10.999Z,98853.47
2022-12-29T15:01:41.291Z,98857.28
2022-12-29T15:04:10.329Z,98858.28
2022-12-29T15:06:38.328Z,98872.75
2022-12-29T15:09:06.085Z,98864.06
2022-12-29T15:11:33.911Z,98868.56
2022-12-29T15:14:02.643Z,98866.03
2022-12-29T15:16:30.597Z,98865.34
2022-12-29T15:18:58.570Z,98866.34
2022-12-29T15:21:26.532Z,98865.53
2022-12-29T15:23:54.879Z,98868.34
2022-12-29T15:26:24.574Z,98865.00
2022-12-29T15:28:52.375Z,98876.06
2022-12-29T15:31:24.942Z,98871.06
2022-12-29T15:33:57.582Z,98871.19
2022-12-29T15:36:25.622Z,98868.53
2022-12-29T15:38:53.440Z,98866.19
2022-12-29T15:41:21.487Z,98871.53
2022-12-29T15:43:49.482Z,98873.50
2022-12-29T15:46:17.419Z,98866.50
2022-12-29T15:48:46.157Z,98869.31
2022-12-29T15:51:14.135Z,98860.78
2022-12-29T15:53:42.000Z,98872.44
2022-12-29T15:56:10.164Z,98878.75
2022-12-29T15:58:38.037Z,98869.06
2022-12-29T16:01:06.305Z,98881.69
2022-12-29T16:03:34.468Z,98873.88
2022-12-29T16:06:02.851Z,98870.50
2022-12-29T16:08:30.867Z,98872.34
2022-12-29T16:10:59.199Z,98869.81
2022-12-29T16:13:27.655Z,98878.81
2022-12-29T16:15:55.497Z,98892.94
2022-12-29T16:18:23.590Z,98889.59
2022-12-29T16:20:51.588Z,98903.91
2022-12-29T16:23:19.500Z,98896.78
2022-12-29T16:25:48.692Z,98911.91
2022-12-29T16:28:16.829Z,98904.91
2022-12-29T16:30:44.887Z,98907.56
2022-12-29T16:33:12.937Z,98921.88
2022-12-29T16:35:40.753Z,98917.53
2022-12-29T16:38:09.348Z,98931.84
2022-12-29T16:40:37.587Z,98912.22
2022-12-29T16:43:05.599Z,98927.34
2022-12-29T16:45:33.427Z,98924.81
2022-12-29T16:48:01.480Z,98917.00
2022-12-29T16:50:30.449Z,98915.16
2022-12-29T16:52:58.462Z,98920.47
2022-12-29T16:55:26.509Z,98916.00
2022-12-29T16:57:54.720Z,98921.31
2022-12-29T17:00:22.512Z,98918.81
2022-12-29T17:02:51.539Z,98922.44
2022-12-29T17:05:19.501Z,98919.09
2022-12-29T17:07:47.414Z,98922.75
2022-12-29T17:10:16.098Z,98931.03
2022-12-29T17:12:44.164Z,98932.00
2022-12-29T17:15:14.652Z,98929.34
2022-12-29T17:17:42.618Z,98938.47
2022-12-29T17:20:10.445Z,98945.63
2022-12-29T17:22:38.401Z,98949.28
2022-12-29T17:25:06.489Z,98944.91
2022-12-29T17:27:34.908Z,98956.56
2022-12-29T17:30:03.608Z,98953.91
2022-12-29T17:32:31.563Z,98953.91
2022-12-29T17:34:59.845Z,98976.03
2022-12-29T17:37:27.689Z,98962.72
2022-12-29T17:39:55.963Z,98954.88
2022-12-29T17:42:23.918Z,98966.53
2022-12-29T17:44:51.890Z,98962.06
2022-12-29T17:47:19.857Z,98966.66
2022-12-29T17:49:48.033Z,98965.13
2022-12-29T17:52:16.504Z,98965.97
2022-12-29T17:54:44.705Z,98967.78
2022-12-29T17:57:12.890Z,98965.44
2022-12-29T17:59:40.830Z,98986.75
2022-12-29T18:02:08.835Z,98997.47
2022-12-29T18:04:37.356Z,98996.34
2022-12-29T18:07:05.113Z,99006.09
2022-12-29T18:09:33.151Z,99006.19
2022-12-29T18:12:01.061Z,99000.69
2022-12-29T18:14:28.910Z,99005.41
2022-12-29T18:16:57.569Z,99005.22
2022-12-29T18:19:26.287Z,99006.47
2022-12-29T18:21:56.406Z,99009.97
2022-12-29T18:24:24.431Z,99015.00
2022-12-29T18:26:52.229Z,99019.25
2022-12-29T18:29:20.610Z,99029.88
2022-12-29T18:31:48.670Z,99026.69
2022-12-29T18:34:16.609Z,99032.13
2022-12-29T18:36:44.420Z,99020.81
2022-12-29T18:39:12.366Z,99036.63
2022-12-29T18:41:42.183Z,99037.16
2022-12-29T18:44:10.104Z,99060.41
2022-12-29T18:46:38.062Z,99069.56
2022-12-29T18:49:06.075Z,99052.88
2022-12-29T18:51:33.813Z,99052.97
2022-12-29T18:54:03.707Z,99052.78
2022-12-29T18:56:31.666Z,99050.31
2022-12-29T18:58:59.472Z,99053.81
2022-12-29T19:01:28.447Z,99059.19
2022-12-29T19:03:56.795Z,99058.03
2022-12-29T19:06:25.436Z,99062.03
2022-12-29T19:08:53.573Z,99071.94
2022-12-29T19:11:21.466Z,99078.31
2022-12-29T19:13:49.375Z,99075.50
2022-12-29T19:16:17.424Z,99076.25
2022-12-29T19:18:53.300Z,99069.97
2022-12-29T19:21:26.441Z,99067.06
2022-12-29T19:23:54.318Z,99071.75
2022-12-29T19:26:22.261Z,99073.75
2022-12-29T19:28:50.799Z,99078.53
2022-12-29T19:31:18.711Z,99073.94
2022-12-29T19:33:46.597Z,99078.78
2022-12-29T19:36:15.895Z,99081.88
2022-12-29T19:38:43.740Z,99078.25
2022-12-29T19:41:12.083Z,99086.22
2022-12-29T19:43:40.124Z,99101.16
2022-12-29T19:46:08.385Z,99095.97
2022-12-29T19:48:36.321Z,99101.88
2022-12-29T19:51:04.367Z,99098.97
2022-12-29T19:53:32.768Z,99120.91
2022-12-29T19:56:00.692Z,99098.44
2022-12-29T19:58:28.790Z,99105.28
2022-12-29T20:00:56.718Z,99100.97
2022-12-29T20:03:24.502Z,99105.44
2022-12-29T20:05:53.029Z,99104.00
2022-12-29T20:08:21.168Z,99097.28
2022-12-29T20:10:49.081Z,99103.53
2022-12-29T20:13:17.050Z,99111.50
2022-12-29T20:15:44.922Z,99114.88
2022-12-29T20:18:14.752Z,99119.94
2022-12-29T20:20:43.376Z,99110.16
2022-12-29T20:23:11.249Z,99123.28
2022-12-29T20:25:47.294Z,99123.28
2022-12-29T20:28:17.388Z,99124.00
2022-12-29T20:30:45.307Z,99122.31
2022-12-29T20:33:13.135Z,99133.88
2022-12-29T20:35:41.067Z,99135.00
2022-12-29T20:38:08.950Z,99135.72
2022-12-29T20:40:44.164Z,99137.53
2022-12-29T20:43:14.000Z,99146.91
2022-12-29T20:45:41.956Z,99146.75
2022-12-29T20:48:09.887Z,99145.81
2022-12-29T20:50:38.309Z,99144.13
2022-12-29T20:53:06.291Z,99169.94
2022-12-29T20:55:34.120Z,99157.53
2022-12-29T21:00:50.656Z,99154.03
2022-12-29T21:03:18.818Z,99155.97
2022-12-29T21:05:46.989Z,99156.78
2022-12-29T21:08:15.735Z,99148.13
2022-12-29T21:10:43.755Z,99158.75
2022-12-29T21:13:11.724Z,99150.78
2022-12-29T21:15:39.800Z,99153.44
2022-12-29T21:18:07.694Z,99158.88
2022-12-29T21:20:35.662Z,99151.75
2022-12-29T21:23:03.625Z,99155.25
2022-12-29T21:25:37.798Z,99159.72
2022-12-29T21:28:05.804Z,99164.91
2022-12-29T21:30:34.126Z,99172.16
2022-12-29T21:33:02.316Z,99159.72
2022-12-29T21:35:31.009Z,99180.22
2022-12-29T21:37:59.414Z,99180.09
2022-12-29T21:40:27.516Z,99164.19
2022-12-29T21:42:55.360Z,99172.97
2022-12-29T21:45:30.210Z,99174.91
2022-12-29T21:48:15.612Z,99188.19
2022-12-29T21:50:57.158Z,99179.63
2022-12-29T21:53:38.140Z,99183.38
2022-12-29T21:56:06.058Z,99188.19
2022-12-29T21:58:51.587Z,99177.75
2022-12-29T22:01:37.164Z,99197.38
2022-12-29T22:04:22.434Z,99191.19
2022-12-29T22:07:07.594Z,99194.22
2022-12-29T22:09:52.970Z,99203.28
2022-12-29T22:12:38.656Z,99195.47
2022-12-29T22:15:06.610Z,99200.88
2022-12-29T22:17:37.663Z,99209.81
2022-12-29T22:20:06.074Z,99208.13
2022-12-29T22:22:33.898Z,99191.38
2022-12-29T22:25:02.996Z,99205.72
2022-12-29T22:27:31.298Z,99211.97
2022-12-29T22:29:59.201Z,99212.25
2022-12-29T22:32:27.436Z,99225.72
2022-12-29T22:34:56.418Z,99215.25
2022-12-29T22:37:24.433Z,99222.25
2022-12-29T22:39:52.616Z,99228.53
2022-12-29T22:42:20.580Z,99232.16
2022-12-29T22:44:49.058Z,99229.72
2022-12-29T22:47:16.801Z,99243.22
2022-12-29T22:49:44.888Z,99246.09
2022-12-29T22:52:14.525Z,99237.19
2022-12-29T22:54:42.817Z,99245.88
2022-12-29T22:57:11.047Z,99254.81
2022-12-29T22:59:40.478Z,99254.81
2022-12-29T23:02:08.262Z,99258.28
2022-12-29T23:05:04.484Z,99251.41
2022-12-29T23:07:37.189Z,99255.72
2022-12-29T23:10:05.761Z,99254.19
2022-12-29T23:12:33.865Z,99268.38
2022-12-29T23:15:02.219Z,99268.63
2022-12-29T23:17:30.548Z,99267.81
2022-12-29T23:19:59.262Z,99266.97
2022-12-29T23:22:27.280Z,99276.97
2022-12-29T23:24:55.287Z,99273.59
2022-12-29T23:27:23.246Z,99270.19
2022-12-29T23:29:51.158Z,99281.75
2022-12-29T23:32:20.364Z,99282.63
2022-12-29T23:34:48.370Z,99292.50
2022-12-29T23:37:16.518Z,99304.66
2022-12-29T23:39:45.333Z,99309.13
2022-12-29T23:42:13.277Z,99323.09
2022-12-29T23:44:42.051Z,99321.41
2022-12-29T23:47:09.874Z,99322.13
2022-12-29T23:49:38.014Z,99337.19
2022-12-29T23:52:05.918Z,99347.03
2022-12-29T23:54:33.857Z,99346.09
2022-12-29T23:57:02.647Z,99347.19
2022-12-29T23:59:30.556Z,99335.97
